sensor_id;sensor_type;location;lat;lon;timestamp;pressure;altitude;pressure_sealevel;temperature
11792;BMP180;5953;52.372;9.918;2023-03-13T00:01:13;99662.00;;;13.00
11792;BMP180;5953;52.372;9.918;2023-03-13T00:03:41;99660.00;;;13.00
11792;BMP180;5953;52.372;9.918;2023-03-13T00:06:09;99661.00;;;13.40
11792;BMP180;5953;52.372;9.918;2023-03-13T00:08:37;99655.00;;;13.30
11792;BMP180;5953;52.372;9.918;2023-03-13T00:11:05;99653.00;;;13.40
11792;BMP180;5953;52.372;9.918;2023-03-13T00:13:33;99643.00;;;13.50
11792;BMP180;5953;52.372;9.918;2023-03-13T00:16:03;99646.00;;;13.60
11792;BMP180;5953;52.372;9.918;2023-03-13T00:18:33;99647.00;;;13.60
11792;BMP180;5953;52.372;9.918;2023-03-13T00:21:02;99639.00;;;13.80
11792;BMP180;5953;52.372;9.918;2023-03-13T00:23:31;99636.00;;;13.70
11792;BMP180;5953;52.372;9.918;2023-03-13T00:26:02;99628.00;;;13.70
11792;BMP180;5953;52.372;9.918;2023-03-13T00:28:32;99633.00;;;13.80
11792;BMP180;5953;52.372;9.918;2023-03-13T00:31:01;99616.00;;;13.40
11792;BMP180;5953;52.372;9.918;2023-03-13T00:33:31;99617.00;;;13.50
11792;BMP180;5953;52.372;9.918;2023-03-13T00:36:01;99637.00;;;13.40
11792;BMP180;5953;52.372;9.918;2023-03-13T00:38:30;99623.00;;;13.40
11792;BMP180;5953;52.372;9.918;2023-03-13T00:41:00;99625.00;;;13.30
11792;BMP180;5953;52.372;9.918;2023-03-13T00:43:28;99605.00;;;13.30
11792;BMP180;5953;52.372;9.918;2023-03-13T00:45:56;99595.00;;;13.30
11792;BMP180;5953;52.372;9.918;2023-03-13T00:48:25;99593.00;;;13.00
11792;BMP180;5953;52.372;9.918;2023-03-13T00:50:53;99592.00;;;13.30
11792;BMP180;5953;52.372;9.918;2023-03-13T00:53:22;99596.00;;;13.30
11792;BMP180;5953;52.372;9.918;2023-03-13T00:55:52;99602.00;;;13.30
11792;BMP180;5953;52.372;9.918;2023-03-13T00:58:20;99594.00;;;13.30
11792;BMP180;5953;52.372;9.918;2023-03-13T01:00:48;99583.00;;;13.00
11792;BMP180;5953;52.372;9.918;2023-03-13T01:03:16;99582.00;;;12.90
11792;BMP180;5953;52.372;9.918;2023-03-13T01:05:44;99576.00;;;12.80
11792;BMP180;5953;52.372;9.918;2023-03-13T01:08:12;99568.00;;;13.20
11792;BMP180;5953;52.372;9.918;2023-03-13T01:10:41;99580.00;;;13.10
11792;BMP180;5953;52.372;9.918;2023-03-13T01:13:09;99570.00;;;12.90
11792;BMP180;5953;52.372;9.918;2023-03-13T01:15:37;99574.00;;;13.10
11792;BMP180;5953;52.372;9.918;2023-03-13T01:18:04;99564.00;;;13.10
11792;BMP180;5953;52.372;9.918;2023-03-13T01:20:33;99569.00;;;12.90
11792;BMP180;5953;52.372;9.918;2023-03-13T01:23:09;99536.00;;;12.90
11792;BMP180;5953;52.372;9.918;2023-03-13T01:25:44;99530.00;;;13.10
11792;BMP180;5953;52.372;9.918;2023-03-13T01:28:16;99557.00;;;12.60
11792;BMP180;5953;52.372;9.918;2023-03-13T01:30:49;99537.00;;;12.90
11792;BMP180;5953;52.372;9.918;2023-03-13T01:33:21;99511.00;;;12.80
11792;BMP180;5953;52.372;9.918;2023-03-13T01:36:00;99498.00;;;12.90
11792;BMP180;5953;52.372;9.918;2023-03-13T01:38:28;99549.00;;;12.90
11792;BMP180;5953;52.372;9.918;2023-03-13T01:40:58;99523.00;;;12.80
11792;BMP180;5953;52.372;9.918;2023-03-13T01:43:29;99531.00;;;13.00
11792;BMP180;5953;52.372;9.918;2023-03-13T01:46:00;99523.00;;;13.00
11792;BMP180;5953;52.372;9.918;2023-03-13T01:48:41;99524.00;;;13.00
11792;BMP180;5953;52.372;9.918;2023-03-13T01:51:21;99521.00;;;13.30
11792;BMP180;5953;52.372;9.918;2023-03-13T01:53:57;99508.00;;;13.00
11792;BMP180;5953;52.372;9.918;2023-03-13T01:56:34;99506.00;;;13.00
11792;BMP180;5953;52.372;9.918;2023-03-13T01:59:07;99469.00;;;13.20
11792;BMP180;5953;52.372;9.918;2023-03-13T02:01:37;99478.00;;;12.70
11792;BMP180;5953;52.372;9.918;2023-03-13T02:04:06;99451.00;;;13.00
11792;BMP180;5953;52.372;9.918;2023-03-13T02:06:37;99444.00;;;13.10
11792;BMP180;5953;52.372;9.918;2023-03-13T02:09:13;99435.00;;;12.60
11792;BMP180;5953;52.372;9.918;2023-03-13T02:11:49;99467.00;;;12.70
11792;BMP180;5953;52.372;9.918;2023-03-13T02:14:33;99452.00;;;13.10
11792;BMP180;5953;52.372;9.918;2023-03-13T02:17:27;99421.00;;;12.90
11792;BMP180;5953;52.372;9.918;2023-03-13T02:20:09;99444.00;;;13.00
11792;BMP180;5953;52.372;9.918;2023-03-13T02:22:59;99445.00;;;12.90
11792;BMP180;5953;52.372;9.918;2023-03-13T02:26:03;99432.00;;;13.20
11792;BMP180;5953;52.372;9.918;2023-03-13T02:29:09;99402.00;;;12.90
11792;BMP180;5953;52.372;9.918;2023-03-13T02:32:17;99422.00;;;13.00
11792;BMP180;5953;52.372;9.918;2023-03-13T02:35:15;99397.00;;;12.80
11792;BMP180;5953;52.372;9.918;2023-03-13T02:38:18;99406.00;;;13.00
11792;BMP180;5953;52.372;9.918;2023-03-13T02:41:06;99410.00;;;12.90
11792;BMP180;5953;52.372;9.918;2023-03-13T02:43:59;99395.00;;;13.00
11792;BMP180;5953;52.372;9.918;2023-03-13T02:46:52;99370.00;;;13.00
11792;BMP180;5953;52.372;9.918;2023-03-13T02:50:00;99396.00;;;13.10
11792;BMP180;5953;52.372;9.918;2023-03-13T02:52:45;99368.00;;;13.10
11792;BMP180;5953;52.372;9.918;2023-03-13T02:55:40;99373.00;;;12.90
11792;BMP180;5953;52.372;9.918;2023-03-13T02:58:43;99336.00;;;13.00
11792;BMP180;5953;52.372;9.918;2023-03-13T03:01:18;99351.00;;;13.00
11792;BMP180;5953;52.372;9.918;2023-03-13T03:04:12;99340.00;;;12.80
11792;BMP180;5953;52.372;9.918;2023-03-13T03:06:52;99313.00;;;12.90
11792;BMP180;5953;52.372;9.918;2023-03-13T03:09:25;99330.00;;;12.90
11792;BMP180;5953;52.372;9.918;2023-03-13T03:11:56;99285.00;;;12.90
11792;BMP180;5953;52.372;9.918;2023-03-13T03:14:27;99306.00;;;12.50
11792;BMP180;5953;52.372;9.918;2023-03-13T03:17:02;99280.00;;;12.80
11792;BMP180;5953;52.372;9.918;2023-03-13T03:23:35;99289.00;;;12.70
11792;BMP180;5953;52.372;9.918;2023-03-13T03:26:55;99249.00;;;12.80
11792;BMP180;5953;52.372;9.918;2023-03-13T03:29:23;99248.00;;;12.70
11792;BMP180;5953;52.372;9.918;2023-03-13T03:31:53;99218.00;;;12.70
11792;BMP180;5953;52.372;9.918;2023-03-13T03:34:22;99232.00;;;12.60
11792;BMP180;5953;52.372;9.918;2023-03-13T03:36:50;99239.00;;;12.60
11792;BMP180;5953;52.372;9.918;2023-03-13T03:39:21;99261.00;;;12.30
11792;BMP180;5953;52.372;9.918;2023-03-13T03:41:49;99249.00;;;12.80
11792;BMP180;5953;52.372;9.918;2023-03-13T03:44:17;99243.00;;;12.80
11792;BMP180;5953;52.372;9.918;2023-03-13T03:46:45;99206.00;;;13.00
11792;BMP180;5953;52.372;9.918;2023-03-13T03:49:15;99182.00;;;12.80
11792;BMP180;5953;52.372;9.918;2023-03-13T03:51:43;99229.00;;;13.00
11792;BMP180;5953;52.372;9.918;2023-03-13T03:54:11;99195.00;;;13.00
11792;BMP180;5953;52.372;9.918;2023-03-13T03:56:39;99201.00;;;13.00
11792;BMP180;5953;52.372;9.918;2023-03-13T03:59:07;99170.00;;;13.00
11792;BMP180;5953;52.372;9.918;2023-03-13T04:01:35;99170.00;;;13.00
11792;BMP180;5953;52.372;9.918;2023-03-13T04:04:03;99160.00;;;12.80
11792;BMP180;5953;52.372;9.918;2023-03-13T04:06:33;99184.00;;;12.90
11792;BMP180;5953;52.372;9.918;2023-03-13T04:09:01;99159.00;;;12.80
11792;BMP180;5953;52.372;9.918;2023-03-13T04:11:30;99165.00;;;12.50
11792;BMP180;5953;52.372;9.918;2023-03-13T04:13:58;99161.00;;;12.80
11792;BMP180;5953;52.372;9.918;2023-03-13T04:16:26;99154.00;;;12.80
11792;BMP180;5953;52.372;9.918;2023-03-13T04:18:54;99139.00;;;12.80
11792;BMP180;5953;52.372;9.918;2023-03-13T04:21:22;99119.00;;;12.80
11792;BMP180;5953;52.372;9.918;2023-03-13T04:23:52;99167.00;;;12.80
11792;BMP180;5953;52.372;9.918;2023-03-13T04:26:20;99184.00;;;12.90
11792;BMP180;5953;52.372;9.918;2023-03-13T04:28:48;99172.00;;;12.60
11792;BMP180;5953;52.372;9.918;2023-03-13T04:31:16;99098.00;;;12.80
11792;BMP180;5953;52.372;9.918;2023-03-13T04:33:44;99113.00;;;12.50
11792;BMP180;5953;52.372;9.918;2023-03-13T04:36:12;99147.00;;;12.60
11792;BMP180;5953;52.372;9.918;2023-03-13T04:38:40;99112.00;;;12.90
11792;BMP180;5953;52.372;9.918;2023-03-13T04:41:10;99088.00;;;12.80
11792;BMP180;5953;52.372;9.918;2023-03-13T04:43:38;99108.00;;;12.20
11792;BMP180;5953;52.372;9.918;2023-03-13T04:46:06;99068.00;;;12.40
11792;BMP180;5953;52.372;9.918;2023-03-13T04:48:34;99073.00;;;12.30
11792;BMP180;5953;52.372;9.918;2023-03-13T04:51:02;99083.00;;;12.50
11792;BMP180;5953;52.372;9.918;2023-03-13T04:53:30;99104.00;;;12.50
11792;BMP180;5953;52.372;9.918;2023-03-13T04:55:57;99058.00;;;12.30
11792;BMP180;5953;52.372;9.918;2023-03-13T04:58:27;99065.00;;;12.40
11792;BMP180;5953;52.372;9.918;2023-03-13T05:00:55;99083.00;;;12.20
11792;BMP180;5953;52.372;9.918;2023-03-13T05:03:23;99083.00;;;12.30
11792;BMP180;5953;52.372;9.918;2023-03-13T05:05:51;99057.00;;;11.80
11792;BMP180;5953;52.372;9.918;2023-03-13T05:08:19;99010.00;;;12.00
11792;BMP180;5953;52.372;9.918;2023-03-13T05:10:47;99042.00;;;12.30
11792;BMP180;5953;52.372;9.918;2023-03-13T05:13:15;99008.00;;;12.20
11792;BMP180;5953;52.372;9.918;2023-03-13T05:15:44;99014.00;;;11.90
11792;BMP180;5953;52.372;9.918;2023-03-13T05:18:12;99033.00;;;12.40
11792;BMP180;5953;52.372;9.918;2023-03-13T05:20:40;99035.00;;;12.30
11792;BMP180;5953;52.372;9.918;2023-03-13T05:23:08;99036.00;;;12.40
11792;BMP180;5953;52.372;9.918;2023-03-13T05:25:36;99016.00;;;12.10
11792;BMP180;5953;52.372;9.918;2023-03-13T05:28:04;99016.00;;;12.30
11792;BMP180;5953;52.372;9.918;2023-03-13T05:30:32;99053.00;;;12.30
11792;BMP180;5953;52.372;9.918;2023-03-13T05:33:02;99041.00;;;12.20
11792;BMP180;5953;52.372;9.918;2023-03-13T05:35:30;99017.00;;;12.20
11792;BMP180;5953;52.372;9.918;2023-03-13T05:37:58;99025.00;;;12.30
11792;BMP180;5953;52.372;9.918;2023-03-13T05:40:26;98994.00;;;11.90
11792;BMP180;5953;52.372;9.918;2023-03-13T05:42:54;98966.00;;;12.20
11792;BMP180;5953;52.372;9.918;2023-03-13T05:45:21;99018.00;;;12.50
11792;BMP180;5953;52.372;9.918;2023-03-13T05:47:51;99009.00;;;12.20
11792;BMP180;5953;52.372;9.918;2023-03-13T05:50:21;99005.00;;;12.00
11792;BMP180;5953;52.372;9.918;2023-03-13T05:52:49;98992.00;;;12.60
11792;BMP180;5953;52.372;9.918;2023-03-13T05:55:17;98980.00;;;12.40
11792;BMP180;5953;52.372;9.918;2023-03-13T05:57:46;98974.00;;;12.60
11792;BMP180;5953;52.372;9.918;2023-03-13T06:00:15;98985.00;;;12.60
11792;BMP180;5953;52.372;9.918;2023-03-13T06:02:44;98988.00;;;12.60
11792;BMP180;5953;52.372;9.918;2023-03-13T06:05:11;98997.00;;;12.50
11792;BMP180;5953;52.372;9.918;2023-03-13T06:07:41;98974.00;;;12.40
11792;BMP180;5953;52.372;9.918;2023-03-13T06:10:10;98960.00;;;12.20
11792;BMP180;5953;52.372;9.918;2023-03-13T06:12:39;98972.00;;;12.40
11792;BMP180;5953;52.372;9.918;2023-03-13T06:15:07;98972.00;;;12.30
11792;BMP180;5953;52.372;9.918;2023-03-13T06:17:38;98979.00;;;12.80
11792;BMP180;5953;52.372;9.918;2023-03-13T06:20:07;98982.00;;;12.40
11792;BMP180;5953;52.372;9.918;2023-03-13T06:22:35;98968.00;;;12.90
11792;BMP180;5953;52.372;9.918;2023-03-13T06:25:06;98972.00;;;12.60
11792;BMP180;5953;52.372;9.918;2023-03-13T06:27:35;98960.00;;;13.10
11792;BMP180;5953;52.372;9.918;2023-03-13T06:30:03;98965.00;;;13.20
11792;BMP180;5953;52.372;9.918;2023-03-13T06:32:31;98955.00;;;12.90
11792;BMP180;5953;52.372;9.918;2023-03-13T06:35:00;98935.00;;;12.90
11792;BMP180;5953;52.372;9.918;2023-03-13T06:37:28;98958.00;;;13.00
11792;BMP180;5953;52.372;9.918;2023-03-13T06:39:57;98972.00;;;13.10
11792;BMP180;5953;52.372;9.918;2023-03-13T06:42:26;98949.00;;;13.00
11792;BMP180;5953;52.372;9.918;2023-03-13T06:44:54;98949.00;;;13.20
11792;BMP180;5953;52.372;9.918;2023-03-13T06:47:22;98949.00;;;13.20
11792;BMP180;5953;52.372;9.918;2023-03-13T06:49:51;98922.00;;;13.30
11792;BMP180;5953;52.372;9.918;2023-03-13T06:52:19;98964.00;;;13.20
11792;BMP180;5953;52.372;9.918;2023-03-13T06:54:57;98926.00;;;13.40
11792;BMP180;5953;52.372;9.918;2023-03-13T06:57:26;98951.00;;;13.10
11792;BMP180;5953;52.372;9.918;2023-03-13T06:59:54;98960.00;;;13.30
11792;BMP180;5953;52.372;9.918;2023-03-13T07:02:22;98893.00;;;13.40
11792;BMP180;5953;52.372;9.918;2023-03-13T07:04:51;98939.00;;;13.40
11792;BMP180;5953;52.372;9.918;2023-03-13T07:07:19;98917.00;;;13.50
11792;BMP180;5953;52.372;9.918;2023-03-13T07:09:57;98914.00;;;13.60
11792;BMP180;5953;52.372;9.918;2023-03-13T07:12:27;98931.00;;;13.70
11792;BMP180;5953;52.372;9.918;2023-03-13T07:14:55;98935.00;;;13.50
11792;BMP180;5953;52.372;9.918;2023-03-13T07:17:23;98939.00;;;13.40
11792;BMP180;5953;52.372;9.918;2023-03-13T07:19:51;98909.00;;;13.90
11792;BMP180;5953;52.372;9.918;2023-03-13T07:22:19;98942.00;;;13.30
11792;BMP180;5953;52.372;9.918;2023-03-13T07:24:47;98933.00;;;13.10
11792;BMP180;5953;52.372;9.918;2023-03-13T07:27:16;98937.00;;;13.60
11792;BMP180;5953;52.372;9.918;2023-03-13T07:29:47;98924.00;;;13.70
11792;BMP180;5953;52.372;9.918;2023-03-13T07:32:15;98926.00;;;13.50
11792;BMP180;5953;52.372;9.918;2023-03-13T07:34:43;98926.00;;;13.70
11792;BMP180;5953;52.372;9.918;2023-03-13T07:37:11;98939.00;;;13.70
11792;BMP180;5953;52.372;9.918;2023-03-13T07:39:40;98895.00;;;13.90
11792;BMP180;5953;52.372;9.918;2023-03-13T07:42:09;98946.00;;;13.90
11792;BMP180;5953;52.372;9.918;2023-03-13T07:44:37;98932.00;;;14.00
11792;BMP180;5953;52.372;9.918;2023-03-13T07:47:06;98927.00;;;13.40
11792;BMP180;5953;52.372;9.918;2023-03-13T07:49:34;98942.00;;;14.10
11792;BMP180;5953;52.372;9.918;2023-03-13T07:52:06;98928.00;;;14.20
11792;BMP180;5953;52.372;9.918;2023-03-13T07:54:34;98940.00;;;14.30
11792;BMP180;5953;52.372;9.918;2023-03-13T07:57:03;98941.00;;;13.90
11792;BMP180;5953;52.372;9.918;2023-03-13T07:59:30;98950.00;;;14.20
11792;BMP180;5953;52.372;9.918;2023-03-13T08:01:58;98949.00;;;14.50
11792;BMP180;5953;52.372;9.918;2023-03-13T08:04:28;98949.00;;;14.50
11792;BMP180;5953;52.372;9.918;2023-03-13T08:06:56;98961.00;;;14.00
11792;BMP180;5953;52.372;9.918;2023-03-13T08:09:23;98974.00;;;14.10
11792;BMP180;5953;52.372;9.918;2023-03-13T08:11:51;98937.00;;;14.30
11792;BMP180;5953;52.372;9.918;2023-03-13T08:14:19;98943.00;;;14.20
11792;BMP180;5953;52.372;9.918;2023-03-13T08:16:47;98956.00;;;14.30
11792;BMP180;5953;52.372;9.918;2023-03-13T08:19:15;98943.00;;;14.40
11792;BMP180;5953;52.372;9.918;2023-03-13T08:21:45;98955.00;;;14.40
11792;BMP180;5953;52.372;9.918;2023-03-13T08:24:13;98902.00;;;14.60
11792;BMP180;5953;52.372;9.918;2023-03-13T08:26:41;98940.00;;;14.40
11792;BMP180;5953;52.372;9.918;2023-03-13T08:29:10;98922.00;;;14.70
11792;BMP180;5953;52.372;9.918;2023-03-13T08:31:43;98930.00;;;14.70
11792;BMP180;5953;52.372;9.918;2023-03-13T08:34:13;98903.00;;;14.60
11792;BMP180;5953;52.372;9.918;2023-03-13T08:36:41;98939.00;;;14.80
11792;BMP180;5953;52.372;9.918;2023-03-13T08:39:12;98936.00;;;14.60
11792;BMP180;5953;52.372;9.918;2023-03-13T08:41:41;98930.00;;;14.60
11792;BMP180;5953;52.372;9.918;2023-03-13T08:44:10;98913.00;;;14.80
11792;BMP180;5953;52.372;9.918;2023-03-13T08:46:39;98918.00;;;15.00
11792;BMP180;5953;52.372;9.918;2023-03-13T08:49:07;98925.00;;;15.00
11792;BMP180;5953;52.372;9.918;2023-03-13T08:51:36;98904.00;;;15.20
11792;BMP180;5953;52.372;9.918;2023-03-13T08:54:04;98891.00;;;15.20
11792;BMP180;5953;52.372;9.918;2023-03-13T08:56:35;98926.00;;;15.10
11792;BMP180;5953;52.372;9.918;2023-03-13T08:59:04;98925.00;;;15.00
11792;BMP180;5953;52.372;9.918;2023-03-13T09:01:34;98906.00;;;15.30
11792;BMP180;5953;52.372;9.918;2023-03-13T09:04:04;98899.00;;;15.30
11792;BMP180;5953;52.372;9.918;2023-03-13T09:06:32;98917.00;;;15.10
11792;BMP180;5953;52.372;9.918;2023-03-13T09:09:01;98918.00;;;15.60
11792;BMP180;5953;52.372;9.918;2023-03-13T09:11:29;98904.00;;;15.50
11792;BMP180;5953;52.372;9.918;2023-03-13T09:13:58;98911.00;;;15.80
11792;BMP180;5953;52.372;9.918;2023-03-13T09:16:27;98917.00;;;15.70
11792;BMP180;5953;52.372;9.918;2023-03-13T09:18:56;98912.00;;;15.90
11792;BMP180;5953;52.372;9.918;2023-03-13T09:21:26;98888.00;;;15.80
11792;BMP180;5953;52.372;9.918;2023-03-13T09:23:55;98892.00;;;15.50
11792;BMP180;5953;52.372;9.918;2023-03-13T09:26:23;98886.00;;;15.50
11792;BMP180;5953;52.372;9.918;2023-03-13T09:28:52;98851.00;;;15.70
11792;BMP180;5953;52.372;9.918;2023-03-13T09:31:24;98866.00;;;15.80
11792;BMP180;5953;52.372;9.918;2023-03-13T09:33:53;98873.00;;;15.80
11792;BMP180;5953;52.372;9.918;2023-03-13T09:36:22;98892.00;;;15.80
11792;BMP180;5953;52.372;9.918;2023-03-13T09:38:51;98870.00;;;15.90
11792;BMP180;5953;52.372;9.918;2023-03-13T09:41:23;98873.00;;;16.10
11792;BMP180;5953;52.372;9.918;2023-03-13T09:43:57;98866.00;;;15.90
11792;BMP180;5953;52.372;9.918;2023-03-13T09:46:36;98862.00;;;16.30
11792;BMP180;5953;52.372;9.918;2023-03-13T09:49:11;98809.00;;;16.30
11792;BMP180;5953;52.372;9.918;2023-03-13T09:51:46;98852.00;;;16.30
11792;BMP180;5953;52.372;9.918;2023-03-13T09:54:22;98846.00;;;16.30
11792;BMP180;5953;52.372;9.918;2023-03-13T09:56:55;98839.00;;;16.30
11792;BMP180;5953;52.372;9.918;2023-03-13T09:59:28;98820.00;;;15.90
11792;BMP180;5953;52.372;9.918;2023-03-13T10:01:59;98851.00;;;16.30
11792;BMP180;5953;52.372;9.918;2023-03-13T10:04:31;98839.00;;;16.30
11792;BMP180;5953;52.372;9.918;2023-03-13T10:07:02;98838.00;;;16.60
11792;BMP180;5953;52.372;9.918;2023-03-13T10:09:31;98855.00;;;16.30
11792;BMP180;5953;52.372;9.918;2023-03-13T10:12:05;98832.00;;;16.80
11792;BMP180;5953;52.372;9.918;2023-03-13T10:14:41;98855.00;;;16.60
11792;BMP180;5953;52.372;9.918;2023-03-13T10:17:19;98862.00;;;16.90
11792;BMP180;5953;52.372;9.918;2023-03-13T10:19:55;98861.00;;;17.00
11792;BMP180;5953;52.372;9.918;2023-03-13T10:22:26;98861.00;;;16.90
11792;BMP180;5953;52.372;9.918;2023-03-13T10:24:58;98855.00;;;17.00
11792;BMP180;5953;52.372;9.918;2023-03-13T10:27:27;98856.00;;;16.60
11792;BMP180;5953;52.372;9.918;2023-03-13T10:29:55;98865.00;;;17.30
11792;BMP180;5953;52.372;9.918;2023-03-13T10:32:26;98847.00;;;17.40
11792;BMP180;5953;52.372;9.918;2023-03-13T10:34:56;98867.00;;;17.20
11792;BMP180;5953;52.372;9.918;2023-03-13T10:37:26;98877.00;;;17.30
11792;BMP180;5953;52.372;9.918;2023-03-13T10:40:10;98864.00;;;17.50
11792;BMP180;5953;52.372;9.918;2023-03-13T10:42:42;98846.00;;;17.40
11792;BMP180;5953;52.372;9.918;2023-03-13T10:45:14;98864.00;;;17.30
11792;BMP180;5953;52.372;9.918;2023-03-13T10:47:44;98861.00;;;17.50
11792;BMP180;5953;52.372;9.918;2023-03-13T10:50:17;98864.00;;;17.30
11792;BMP180;5953;52.372;9.918;2023-03-13T10:52:48;98846.00;;;17.70
11792;BMP180;5953;52.372;9.918;2023-03-13T10:55:18;98843.00;;;17.60
11792;BMP180;5953;52.372;9.918;2023-03-13T10:57:54;98848.00;;;17.70
11792;BMP180;5953;52.372;9.918;2023-03-13T11:00:33;98844.00;;;18.10
11792;BMP180;5953;52.372;9.918;2023-03-13T11:03:06;98824.00;;;17.90
11792;BMP180;5953;52.372;9.918;2023-03-13T11:05:41;98828.00;;;18.10
11792;BMP180;5953;52.372;9.918;2023-03-13T11:08:19;98828.00;;;18.20
11792;BMP180;5953;52.372;9.918;2023-03-13T11:10:53;98813.00;;;18.20
11792;BMP180;5953;52.372;9.918;2023-03-13T11:13:28;98832.00;;;18.30
11792;BMP180;5953;52.372;9.918;2023-03-13T11:16:20;98814.00;;;18.20
11792;BMP180;5953;52.372;9.918;2023-03-13T11:19:07;98803.00;;;18.60
11792;BMP180;5953;52.372;9.918;2023-03-13T11:21:43;98793.00;;;18.60
11792;BMP180;5953;52.372;9.918;2023-03-13T11:24:18;98783.00;;;18.60
11792;BMP180;5953;52.372;9.918;2023-03-13T11:26:53;98813.00;;;18.60
11792;BMP180;5953;52.372;9.918;2023-03-13T11:29:38;98780.00;;;18.70
11792;BMP180;5953;52.372;9.918;2023-03-13T11:32:15;98795.00;;;18.80
11792;BMP180;5953;52.372;9.918;2023-03-13T11:34:50;98758.00;;;18.90
11792;BMP180;5953;52.372;9.918;2023-03-13T11:37:19;98782.00;;;19.00
11792;BMP180;5953;52.372;9.918;2023-03-13T11:40:02;98768.00;;;19.20
11792;BMP180;5953;52.372;9.918;2023-03-13T11:42:45;98780.00;;;19.20
11792;BMP180;5953;52.372;9.918;2023-03-13T11:48:18;98775.00;;;19.40
11792;BMP180;5953;52.372;9.918;2023-03-13T11:50:51;98758.00;;;19.40
11792;BMP180;5953;52.372;9.918;2023-03-13T11:53:29;98739.00;;;19.30
11792;BMP180;5953;52.372;9.918;2023-03-13T11:56:06;98769.00;;;19.90
11792;BMP180;5953;52.372;9.918;2023-03-13T11:58:52;98764.00;;;20.00
11792;BMP180;5953;52.372;9.918;2023-03-13T12:01:26;98769.00;;;19.40
11792;BMP180;5953;52.372;9.918;2023-03-13T12:03:57;98776.00;;;19.30
11792;BMP180;5953;52.372;9.918;2023-03-13T12:06:31;98744.00;;;19.80
11792;BMP180;5953;52.372;9.918;2023-03-13T12:09:05;98769.00;;;19.40
11792;BMP180;5953;52.372;9.918;2023-03-13T12:11:39;98765.00;;;19.60
11792;BMP180;5953;52.372;9.918;2023-03-13T12:14:12;98767.00;;;19.90
11792;BMP180;5953;52.372;9.918;2023-03-13T12:16:45;98746.00;;;19.70
11792;BMP180;5953;52.372;9.918;2023-03-13T12:19:16;98754.00;;;20.00
11792;BMP180;5953;52.372;9.918;2023-03-13T12:21:49;98778.00;;;19.30
11792;BMP180;5953;52.372;9.918;2023-03-13T12:24:24;98757.00;;;19.30
11792;BMP180;5953;52.372;9.918;2023-03-13T12:26:58;98745.00;;;19.90
11792;BMP180;5953;52.372;9.918;2023-03-13T12:29:38;98752.00;;;20.30
11792;BMP180;5953;52.372;9.918;2023-03-13T12:32:12;98743.00;;;20.10
11792;BMP180;5953;52.372;9.918;2023-03-13T12:34:50;98754.00;;;20.30
11792;BMP180;5953;52.372;9.918;2023-03-13T12:37:30;98748.00;;;20.50
11792;BMP180;5953;52.372;9.918;2023-03-13T12:40:02;98752.00;;;20.50
11792;BMP180;5953;52.372;9.918;2023-03-13T12:42:41;98739.00;;;20.30
11792;BMP180;5953;52.372;9.918;2023-03-13T12:45:15;98739.00;;;20.30
11792;BMP180;5953;52.372;9.918;2023-03-13T12:48:17;98711.00;;;20.40
11792;BMP180;5953;52.372;9.918;2023-03-13T12:50:58;98720.00;;;20.80
11792;BMP180;5953;52.372;9.918;2023-03-13T12:53:42;98726.00;;;20.10
11792;BMP180;5953;52.372;9.918;2023-03-13T12:56:21;98724.00;;;20.00
11792;BMP180;5953;52.372;9.918;2023-03-13T12:58:54;98705.00;;;20.30
11792;BMP180;5953;52.372;9.918;2023-03-13T13:01:30;98714.00;;;20.30
11792;BMP180;5953;52.372;9.918;2023-03-13T13:04:04;98702.00;;;20.50
11792;BMP180;5953;52.372;9.918;2023-03-13T13:06:52;98690.00;;;20.20
11792;BMP180;5953;52.372;9.918;2023-03-13T13:09:25;98697.00;;;20.40
11792;BMP180;5953;52.372;9.918;2023-03-13T13:11:56;98696.00;;;20.60
11792;BMP180;5953;52.372;9.918;2023-03-13T13:14:58;98683.00;;;20.60
11792;BMP180;5953;52.372;9.918;2023-03-13T13:17:39;98685.00;;;21.00
11792;BMP180;5953;52.372;9.918;2023-03-13T13:20:39;98670.00;;;20.70
11792;BMP180;5953;52.372;9.918;2023-03-13T13:23:33;98665.00;;;20.80
11792;BMP180;5953;52.372;9.918;2023-03-13T13:29:52;98658.00;;;21.30
11792;BMP180;5953;52.372;9.918;2023-03-13T13:32:38;98647.00;;;21.10
11792;BMP180;5953;52.372;9.918;2023-03-13T13:35:25;98640.00;;;21.50
11792;BMP180;5953;52.372;9.918;2023-03-13T13:41:04;98621.00;;;21.40
11792;BMP180;5953;52.372;9.918;2023-03-13T13:43:49;98617.00;;;21.30
11792;BMP180;5953;52.372;9.918;2023-03-13T13:46:43;98617.00;;;20.90
11792;BMP180;5953;52.372;9.918;2023-03-13T13:49:16;98601.00;;;21.30
11792;BMP180;5953;52.372;9.918;2023-03-13T13:52:16;98603.00;;;21.20
11792;BMP180;5953;52.372;9.918;2023-03-13T13:54:55;98611.00;;;20.80
11792;BMP180;5953;52.372;9.918;2023-03-13T13:57:25;98602.00;;;20.90
11792;BMP180;5953;52.372;9.918;2023-03-13T13:59:57;98626.00;;;21.30
11792;BMP180;5953;52.372;9.918;2023-03-13T14:02:31;98607.00;;;20.90
11792;BMP180;5953;52.372;9.918;2023-03-13T14:05:04;98597.00;;;21.30
11792;BMP180;5953;52.372;9.918;2023-03-13T14:07:58;98594.00;;;21.30
11792;BMP180;5953;52.372;9.918;2023-03-13T14:10:33;98615.00;;;21.50
11792;BMP180;5953;52.372;9.918;2023-03-13T14:13:11;98581.00;;;21.30
11792;BMP180;5953;52.372;9.918;2023-03-13T14:15:44;98603.00;;;21.10
11792;BMP180;5953;52.372;9.918;2023-03-13T14:18:19;98587.00;;;20.90
11792;BMP180;5953;52.372;9.918;2023-03-13T14:20:53;98592.00;;;21.20
11792;BMP180;5953;52.372;9.918;2023-03-13T14:23:32;98599.00;;;20.90
11792;BMP180;5953;52.372;9.918;2023-03-13T14:26:12;98593.00;;;21.30
11792;BMP180;5953;52.372;9.918;2023-03-13T14:28:43;98577.00;;;21.50
11792;BMP180;5953;52.372;9.918;2023-03-13T14:31:21;98601.00;;;21.60
11792;BMP180;5953;52.372;9.918;2023-03-13T14:33:50;98601.00;;;21.30
11792;BMP180;5953;52.372;9.918;2023-03-13T14:36:18;98582.00;;;21.50
11792;BMP180;5953;52.372;9.918;2023-03-13T14:38:51;98564.00;;;21.60
11792;BMP180;5953;52.372;9.918;2023-03-13T14:41:22;98564.00;;;21.80
11792;BMP180;5953;52.372;9.918;2023-03-13T14:43:51;98573.00;;;21.40
11792;BMP180;5953;52.372;9.918;2023-03-13T14:46:28;98564.00;;;21.50
11792;BMP180;5953;52.372;9.918;2023-03-13T14:49:04;98554.00;;;21.40
11792;BMP180;5953;52.372;9.918;2023-03-13T14:51:36;98560.00;;;21.30
11792;BMP180;5953;52.372;9.918;2023-03-13T14:54:19;98568.00;;;21.10
11792;BMP180;5953;52.372;9.918;2023-03-13T14:57:01;98554.00;;;21.10
11792;BMP180;5953;52.372;9.918;2023-03-13T14:59:29;98537.00;;;21.40
11792;BMP180;5953;52.372;9.918;2023-03-13T15:01:58;98541.00;;;21.00
11792;BMP180;5953;52.372;9.918;2023-03-13T15:04:57;98547.00;;;20.80
11792;BMP180;5953;52.372;9.918;2023-03-13T15:07:33;98522.00;;;21.10
11792;BMP180;5953;52.372;9.918;2023-03-13T15:10:17;98531.00;;;21.00